HomeShort term forecast

Short term forecast

Graphical weather forecast for the next 48 hours for Montreal:
Short term forecast
This weather forecast is automatically refreshed every 3 hours.

Hourly Experimental Forecast for the next 48 hours ®

Overall summary: Possible flurries later this afternoon.

 Date & Hour   Temp   Feel   Baro   Hum   Speed & Bearing   Wind Gust   Precip.%   Precip.   Visibility   Cloud cover   Conditions 
 20/11/2019 - 13:00  1.3°C  -1.3°C  1017.2 hPa  91%  8.3 km/h   11.2 km/h  49%  0.09 mm/h  8.4km  100%  Possible Flurries (< 1 cm.) 
 20/11/2019 - 14:00  1.4°C  -0.5°C  1017.7 hPa  89%  6.4 km/h   12.0 km/h  22%  0.10 mm/h  7.8km  100%  Overcast 
 20/11/2019 - 15:00  1.3°C  -0.4°C  1017.7 hPa  89%  5.9 km/h   13.3 km/h  21%  0.09 mm/h  7.1km  93%  Overcast 
 20/11/2019 - 16:00  1.2°C  -0.8°C  1018.1 hPa  90%  6.6 km/h   15.6 km/h  18%  0.05 mm/h  6.8km  99%  Overcast 
 20/11/2019 - 17:00  1.3°C  -0.8°C  1018.6 hPa  89%  6.6 km/h   14.4 km/h  13%  0.04 mm/h  6.6km  94%  Overcast 
 20/11/2019 - 18:00  1.5°C  -0.6°C  1019.1 hPa  89%  7.0 km/h   14.1 km/h  17%  0.05 mm/h  6.6km  80%  Mostly Cloudy 
 20/11/2019 - 19:00  1.5°C  -0.7°C  1019.7 hPa  90%  7.2 km/h   14.2 km/h  7%  0.02 mm/h  6.7km  78%  Mostly Cloudy 
 20/11/2019 - 20:00  1.1°C  -1.3°C  1020.2 hPa  90%  7.5 km/h   13.8 km/h  6%  0.03 mm/h  8.1km  75%  Mostly Cloudy 
 20/11/2019 - 21:00  0.4°C  -2.1°C  1020.5 hPa  88%  7.6 km/h   13.5 km/h  4%  0.04 mm/h  10.2km  62%  Mostly Cloudy 
 20/11/2019 - 22:00  -0.4°C  -3.0°C  1020.7 hPa  88%  7.7 km/h   11.0 km/h  2%  0.01 mm/h  12.2km  55%  Partly Cloudy 
 20/11/2019 - 23:00  -1.1°C  -3.9°C  1020.8 hPa  88%  7.7 km/h   9.2 km/h  2%  0.03 mm/h  13.2km  48%  Partly Cloudy 
 21/11/2019 - 00:00  -1.9°C  -4.8°C  1020.8 hPa  87%  7.6 km/h   8.2 km/h  2%  0.01 mm/h  13.5km  43%  Partly Cloudy 
 21/11/2019 - 01:00  -2.5°C  -5.6°C  1020.9 hPa  86%  7.9 km/h   8.6 km/h  1%  0.01 mm/h  13.9km  39%  Partly Cloudy 
 21/11/2019 - 02:00  -3.3°C  -6.6°C  1021.6 hPa  87%  8.0 km/h   8.1 km/h  1%  0.01 mm/h  11.8km  52%  Partly Cloudy 
 21/11/2019 - 03:00  -4.0°C  -7.4°C  1022.3 hPa  88%  8.2 km/h   8.4 km/h  1%  0.01 mm/h  12.0km  46%  Partly Cloudy 
 21/11/2019 - 04:00  -4.4°C  -8.0°C  1022.8 hPa  88%  8.4 km/h   8.5 km/h  1%  0.01 mm/h  12.2km  44%  Partly Cloudy 
 21/11/2019 - 05:00  -4.6°C  -8.2°C  1023.0 hPa  89%  8.3 km/h   8.4 km/h  2%  0.01 mm/h  12.4km  45%  Partly Cloudy 
 21/11/2019 - 06:00  -4.5°C  -8.0°C  1023.0 hPa  91%  8.0 km/h   8.1 km/h  2%  0.01 mm/h  12.6km  47%  Partly Cloudy 
 21/11/2019 - 07:00  -4.4°C  -7.8°C  1022.9 hPa  93%  7.8 km/h   7.9 km/h  2%  0.01 mm/h  12.7km  51%  Partly Cloudy 
 21/11/2019 - 08:00  -3.5°C  -6.7°C  1022.8 hPa  92%  7.5 km/h   8.8 km/h  3%  0.01 mm/h  12.7km  59%  Partly Cloudy 
 21/11/2019 - 09:00  -2.6°C  -5.5°C  1022.7 hPa  92%  7.3 km/h   10.3 km/h  0%  --  12.9km  70%  Mostly Cloudy 
 21/11/2019 - 10:00  -1.7°C  -4.4°C  1022.6 hPa  91%  7.2 km/h   11.7 km/h  0%  --  12.6km  78%  Mostly Cloudy 
 21/11/2019 - 11:00  -0.9°C  -3.8°C  1021.8 hPa  90%  7.8 km/h   13.0 km/h  0%  --  12.6km  80%  Mostly Cloudy 
 21/11/2019 - 12:00  0.0°C  -2.9°C  1021.0 hPa  89%  8.6 km/h   14.1 km/h  0%  --  13.1km  80%  Mostly Cloudy 
 21/11/2019 - 13:00  0.7°C  -2.3°C  1020.1 hPa  87%  9.1 km/h   14.7 km/h  0%  --  13.6km  82%  Mostly Cloudy 
 21/11/2019 - 14:00  0.9°C  -1.8°C  1019.2 hPa  84%  8.6 km/h   13.8 km/h  0%  --  13.7km  87%  Mostly Cloudy 
 21/11/2019 - 15:00  0.7°C  -1.8°C  1018.4 hPa  83%  7.8 km/h   12.4 km/h  0%  --  13.7km  94%  Overcast 
 21/11/2019 - 16:00  0.6°C  -1.9°C  1017.5 hPa  83%  7.4 km/h   12.2 km/h  0%  --  12.8km  98%  Overcast 
 21/11/2019 - 17:00  0.3°C  -2.3°C  1017.1 hPa  83%  7.6 km/h   14.2 km/h  0%  --  12.3km  100%  Overcast 
 21/11/2019 - 18:00  0.3°C  -2.4°C  1016.6 hPa  85%  8.2 km/h   17.5 km/h  0%  --  12.3km  100%  Overcast 
 21/11/2019 - 19:00  0.3°C  -2.8°C  1015.9 hPa  88%  9.5 km/h   21.6 km/h  0%  --  13.6km  99%  Overcast 
 21/11/2019 - 20:00  0.4°C  -3.2°C  1014.7 hPa  89%  11.9 km/h   27.4 km/h  4%  0.02 mm/h  16.1km  100%  Overcast 
 21/11/2019 - 21:00  0.7°C  -3.6°C  1013.1 hPa  90%  15.0 km/h   34.0 km/h  7%  0.06 mm/h  16.1km  100%  Overcast 
 21/11/2019 - 22:00  1.0°C  -3.6°C  1011.3 hPa  92%  17.2 km/h   38.7 km/h  24%  0.13 mm/h  16.1km  100%  Overcast 
 21/11/2019 - 23:00  1.3°C  -3.2°C  1009.4 hPa  94%  17.8 km/h   40.3 km/h  44%  0.30 mm/h  16.1km  100%  Possible Drizzle 
 22/11/2019 - 00:00  1.8°C  -2.6°C  1007.2 hPa  97%  17.6 km/h   40.0 km/h  54%  0.69 mm/h  16.1km  100%  Possible Light Rain 
 22/11/2019 - 01:00  2.3°C  -2.1°C  1005.2 hPa  98%  17.6 km/h   39.1 km/h  58%  1.03 mm/h  16.1km  100%  Possible Light Rain 
 22/11/2019 - 02:00  2.6°C  -1.7°C  1003.6 hPa  98%  18.2 km/h   36.3 km/h  59%  0.94 mm/h  14.1km  100%  Possible Light Rain 
 22/11/2019 - 03:00  3.0°C  -1.4°C  1002.1 hPa  98%  19.0 km/h   33.0 km/h  57%  0.68 mm/h  11.4km  100%  Possible Light Rain 
 22/11/2019 - 04:00  3.3°C  -1.1°C  1000.7 hPa  98%  19.6 km/h   33.3 km/h  56%  0.51 mm/h  9.5km  100%  Possible Light Rain 
 22/11/2019 - 05:00  3.7°C  -0.5°C  999.2 hPa  99%  19.7 km/h   40.8 km/h  59%  0.41 mm/h  8.8km  100%  Possible Light Rain 
 22/11/2019 - 06:00  4.1°C  0.0°C  997.7 hPa  100%  19.5 km/h   52.1 km/h  56%  0.32 mm/h  9.4km  100%  Possible Drizzle 
 22/11/2019 - 07:00  4.1°C  -0.2°C  996.6 hPa  100%  20.6 km/h   60.7 km/h  55%  0.27 mm/h  10.8km  100%  Possible Drizzle 
 22/11/2019 - 08:00  3.9°C  -0.7°C  996.0 hPa  100%  24.0 km/h   64.4 km/h  55%  0.30 mm/h  15.5km  99%  Possible Drizzle and Windy 
 22/11/2019 - 09:00  3.8°C  -1.3°C  995.8 hPa  100%  28.5 km/h   65.5 km/h  63%  0.44 mm/h  16.1km  98%  Possible Light Rain and Windy 
 22/11/2019 - 10:00  3.5°C  -2.1°C  996.1 hPa  100%  32.4 km/h   65.7 km/h  70%  0.50 mm/h  16.1km  97%  Light Rain and Windy 
 22/11/2019 - 11:00  2.3°C  -3.9°C  996.9 hPa  98%  35.4 km/h   64.2 km/h  42%  0.29 mm/h  16.1km  97%  Possible Drizzle and Windy 
 22/11/2019 - 12:00  0.8°C  -6.1°C  998.1 hPa  98%  38.3 km/h   61.6 km/h  12%  0.07 mm/h  16.1km  98%  Overcast 
Test

 

Past weather and reports

Past weatherFind in this section the past weather conditions, weather archive, graphics, reports and statistics.

Current conditions

Current weather condition for MontrealAll you need to know about the current weather conditions for Montreal. Weather data is updated every 10 minutes.

Weather forecast

Current Montreal weatherSince 2004, celinium.com website has provided accurate weather forecast for Montreal's island.